sensor_id;sensor_type;location;lat;lon;timestamp;temperature;humidity
68128;SHT30;54931;52.098;21.006;2023-07-02T00:00:14;17.33;80.61
68128;SHT30;54931;52.098;21.006;2023-07-02T00:03:02;17.29;80.78
68128;SHT30;54931;52.098;21.006;2023-07-02T00:05:30;17.24;80.80
68128;SHT30;54931;52.098;21.006;2023-07-02T00:07:58;17.19;80.84
68128;SHT30;54931;52.098;21.006;2023-07-02T00:10:26;17.14;80.91
68128;SHT30;54931;52.098;21.006;2023-07-02T00:12:54;17.09;81.01
68128;SHT30;54931;52.098;21.006;2023-07-02T00:15:22;17.05;81.18
68128;SHT30;54931;52.098;21.006;2023-07-02T00:17:50;17.02;81.28
68128;SHT30;54931;52.098;21.006;2023-07-02T00:20:17;16.98;81.32
68128;SHT30;54931;52.098;21.006;2023-07-02T00:22:48;16.93;81.45
68128;SHT30;54931;52.098;21.006;2023-07-02T00:25:16;16.90;81.49
68128;SHT30;54931;52.098;21.006;2023-07-02T00:27:44;16.85;81.58
68128;SHT30;54931;52.098;21.006;2023-07-02T00:30:11;16.80;81.61
68128;SHT30;54931;52.098;21.006;2023-07-02T00:32:40;16.77;81.70
68128;SHT30;54931;52.098;21.006;2023-07-02T00:35:07;16.72;81.80
68128;SHT30;54931;52.098;21.006;2023-07-02T00:37:35;16.69;81.91
68128;SHT30;54931;52.098;21.006;2023-07-02T00:40:03;16.66;82.02
68128;SHT30;54931;52.098;21.006;2023-07-02T00:42:32;16.62;82.10
68128;SHT30;54931;52.098;21.006;2023-07-02T00:45:00;16.58;82.13
68128;SHT30;54931;52.098;21.006;2023-07-02T00:47:32;16.54;82.29
68128;SHT30;54931;52.098;21.006;2023-07-02T00:50:02;16.53;82.34
68128;SHT30;54931;52.098;21.006;2023-07-02T00:52:31;16.49;82.44
68128;SHT30;54931;52.098;21.006;2023-07-02T00:54:59;16.47;82.50
68128;SHT30;54931;52.098;21.006;2023-07-02T00:57:26;16.44;82.57
68128;SHT30;54931;52.098;21.006;2023-07-02T00:59:57;16.42;82.64
68128;SHT30;54931;52.098;21.006;2023-07-02T01:02:28;16.39;82.69
68128;SHT30;54931;52.098;21.006;2023-07-02T01:04:56;16.38;82.81
68128;SHT30;54931;52.098;21.006;2023-07-02T01:07:26;16.35;82.90
68128;SHT30;54931;52.098;21.006;2023-07-02T01:09:54;16.33;82.90
68128;SHT30;54931;52.098;21.006;2023-07-02T01:12:22;16.30;82.90
68128;SHT30;54931;52.098;21.006;2023-07-02T01:14:51;16.27;82.90
68128;SHT30;54931;52.098;21.006;2023-07-02T01:17:22;16.24;82.98
68128;SHT30;54931;52.098;21.006;2023-07-02T01:19:54;16.23;83.27
68128;SHT30;54931;52.098;21.006;2023-07-02T01:22:26;16.22;83.39
68128;SHT30;54931;52.098;21.006;2023-07-02T01:24:56;16.19;83.32
68128;SHT30;54931;52.098;21.006;2023-07-02T01:27:24;16.17;83.27
68128;SHT30;54931;52.098;21.006;2023-07-02T01:29:56;16.14;83.38
68128;SHT30;54931;52.098;21.006;2023-07-02T01:32:24;16.13;83.50
68128;SHT30;54931;52.098;21.006;2023-07-02T01:34:52;16.12;83.62
68128;SHT30;54931;52.098;21.006;2023-07-02T01:37:20;16.12;83.70
68128;SHT30;54931;52.098;21.006;2023-07-02T01:39:48;16.11;83.69
68128;SHT30;54931;52.098;21.006;2023-07-02T01:42:19;16.10;83.78
68128;SHT30;54931;52.098;21.006;2023-07-02T01:44:49;16.08;83.77
68128;SHT30;54931;52.098;21.006;2023-07-02T01:47:17;16.08;83.80
68128;SHT30;54931;52.098;21.006;2023-07-02T01:49:46;16.08;83.91
68128;SHT30;54931;52.098;21.006;2023-07-02T01:52:14;16.07;83.96
68128;SHT30;54931;52.098;21.006;2023-07-02T01:54:43;16.07;84.00
68128;SHT30;54931;52.098;21.006;2023-07-02T01:57:12;16.07;84.00
68128;SHT30;54931;52.098;21.006;2023-07-02T01:59:40;16.06;84.07
68128;SHT30;54931;52.098;21.006;2023-07-02T02:02:07;16.06;84.07
68128;SHT30;54931;52.098;21.006;2023-07-02T02:04:35;16.06;84.16
68128;SHT30;54931;52.098;21.006;2023-07-02T02:07:03;16.06;84.14
68128;SHT30;54931;52.098;21.006;2023-07-02T02:09:30;16.06;84.16
68128;SHT30;54931;52.098;21.006;2023-07-02T02:11:59;16.09;84.28
68128;SHT30;54931;52.098;21.006;2023-07-02T02:14:27;16.10;84.30
68128;SHT30;54931;52.098;21.006;2023-07-02T02:16:55;16.13;84.39
68128;SHT30;54931;52.098;21.006;2023-07-02T02:19:22;16.16;84.40
68128;SHT30;54931;52.098;21.006;2023-07-02T02:21:50;16.19;84.44
68128;SHT30;54931;52.098;21.006;2023-07-02T02:24:17;16.23;84.47
68128;SHT30;54931;52.098;21.006;2023-07-02T02:26:45;16.26;84.49
68128;SHT30;54931;52.098;21.006;2023-07-02T02:29:12;16.32;84.49
68128;SHT30;54931;52.098;21.006;2023-07-02T02:31:40;16.35;84.41
68128;SHT30;54931;52.098;21.006;2023-07-02T02:34:07;16.39;84.40
68128;SHT30;54931;52.098;21.006;2023-07-02T02:36:35;16.42;84.34
68128;SHT30;54931;52.098;21.006;2023-07-02T02:39:02;16.46;84.28
68128;SHT30;54931;52.098;21.006;2023-07-02T02:41:30;16.49;84.21
68128;SHT30;54931;52.098;21.006;2023-07-02T02:43:58;16.52;84.20
68128;SHT30;54931;52.098;21.006;2023-07-02T02:46:25;16.55;84.16
68128;SHT30;54931;52.098;21.006;2023-07-02T02:48:53;16.59;84.10
68128;SHT30;54931;52.098;21.006;2023-07-02T02:51:20;16.61;84.04
68128;SHT30;54931;52.098;21.006;2023-07-02T02:53:48;16.65;84.01
68128;SHT30;54931;52.098;21.006;2023-07-02T02:56:16;16.68;84.00
68128;SHT30;54931;52.098;21.006;2023-07-02T02:58:43;16.72;83.99
68128;SHT30;54931;52.098;21.006;2023-07-02T03:01:11;16.75;83.96
68128;SHT30;54931;52.098;21.006;2023-07-02T03:03:39;16.77;83.91
68128;SHT30;54931;52.098;21.006;2023-07-02T03:06:12;16.79;83.81
68128;SHT30;54931;52.098;21.006;2023-07-02T03:08:41;16.83;83.79
68128;SHT30;54931;52.098;21.006;2023-07-02T03:11:09;16.87;83.75
68128;SHT30;54931;52.098;21.006;2023-07-02T03:13:36;16.92;83.71
68128;SHT30;54931;52.098;21.006;2023-07-02T03:16:04;16.98;83.62
68128;SHT30;54931;52.098;21.006;2023-07-02T03:18:33;17.05;83.54
68128;SHT30;54931;52.098;21.006;2023-07-02T03:21:01;17.10;83.47
68128;SHT30;54931;52.098;21.006;2023-07-02T03:23:28;17.16;83.34
68128;SHT30;54931;52.098;21.006;2023-07-02T03:25:56;17.22;83.18
68128;SHT30;54931;52.098;21.006;2023-07-02T03:28:24;17.27;83.00
68128;SHT30;54931;52.098;21.006;2023-07-02T03:30:52;17.32;82.82
68128;SHT30;54931;52.098;21.006;2023-07-02T03:33:19;17.37;82.68
68128;SHT30;54931;52.098;21.006;2023-07-02T03:35:47;17.41;82.56
68128;SHT30;54931;52.098;21.006;2023-07-02T03:38:15;17.45;82.45
68128;SHT30;54931;52.098;21.006;2023-07-02T03:40:43;17.49;82.27
68128;SHT30;54931;52.098;21.006;2023-07-02T03:43:11;17.53;82.14
68128;SHT30;54931;52.098;21.006;2023-07-02T03:45:38;17.58;82.01
68128;SHT30;54931;52.098;21.006;2023-07-02T03:48:08;17.64;82.01
68128;SHT30;54931;52.098;21.006;2023-07-02T03:50:36;17.70;81.98
68128;SHT30;54931;52.098;21.006;2023-07-02T03:53:03;17.76;81.71
68128;SHT30;54931;52.098;21.006;2023-07-02T03:55:31;17.83;81.59
68128;SHT30;54931;52.098;21.006;2023-07-02T03:57:58;17.92;81.47
68128;SHT30;54931;52.098;21.006;2023-07-02T04:00:26;17.99;81.20
68128;SHT30;54931;52.098;21.006;2023-07-02T04:02:54;18.06;80.96
68128;SHT30;54931;52.098;21.006;2023-07-02T04:05:22;18.11;80.75
68128;SHT30;54931;52.098;21.006;2023-07-02T04:07:49;18.17;80.56
68128;SHT30;54931;52.098;21.006;2023-07-02T04:10:17;18.22;80.33
68128;SHT30;54931;52.098;21.006;2023-07-02T04:12:45;18.27;80.14
68128;SHT30;54931;52.098;21.006;2023-07-02T04:15:13;18.31;79.87
68128;SHT30;54931;52.098;21.006;2023-07-02T04:17:41;18.36;79.74
68128;SHT30;54931;52.098;21.006;2023-07-02T04:20:10;18.40;79.57
68128;SHT30;54931;52.098;21.006;2023-07-02T04:22:38;18.44;79.24
68128;SHT30;54931;52.098;21.006;2023-07-02T04:25:06;18.48;79.04
68128;SHT30;54931;52.098;21.006;2023-07-02T04:27:35;18.52;78.82
68128;SHT30;54931;52.098;21.006;2023-07-02T04:30:03;18.55;78.63
68128;SHT30;54931;52.098;21.006;2023-07-02T04:32:33;18.60;78.47
68128;SHT30;54931;52.098;21.006;2023-07-02T04:35:00;18.66;78.38
68128;SHT30;54931;52.098;21.006;2023-07-02T04:37:29;18.73;78.22
68128;SHT30;54931;52.098;21.006;2023-07-02T04:39:57;18.80;78.00
68128;SHT30;54931;52.098;21.006;2023-07-02T04:42:25;18.88;77.89
68128;SHT30;54931;52.098;21.006;2023-07-02T04:44:58;18.95;77.61
68128;SHT30;54931;52.098;21.006;2023-07-02T04:47:30;19.03;77.34
68128;SHT30;54931;52.098;21.006;2023-07-02T04:49:58;19.09;77.19
68128;SHT30;54931;52.098;21.006;2023-07-02T04:52:26;19.14;76.99
68128;SHT30;54931;52.098;21.006;2023-07-02T04:54:54;19.19;76.70
68128;SHT30;54931;52.098;21.006;2023-07-02T04:57:23;19.24;76.51
68128;SHT30;54931;52.098;21.006;2023-07-02T04:59:50;19.28;76.13
68128;SHT30;54931;52.098;21.006;2023-07-02T05:02:17;19.33;75.84
68128;SHT30;54931;52.098;21.006;2023-07-02T05:04:45;19.36;75.72
68128;SHT30;54931;52.098;21.006;2023-07-02T05:07:13;19.41;75.66
68128;SHT30;54931;52.098;21.006;2023-07-02T05:09:40;19.45;75.52
68128;SHT30;54931;52.098;21.006;2023-07-02T05:12:08;19.51;75.20
68128;SHT30;54931;52.098;21.006;2023-07-02T05:14:36;19.55;74.90
68128;SHT30;54931;52.098;21.006;2023-07-02T05:17:04;19.60;74.48
68128;SHT30;54931;52.098;21.006;2023-07-02T05:19:31;19.60;73.65
68128;SHT30;54931;52.098;21.006;2023-07-02T05:21:59;19.61;73.70
68128;SHT30;54931;52.098;21.006;2023-07-02T05:24:27;19.65;74.15
68128;SHT30;54931;52.098;21.006;2023-07-02T05:26:54;19.73;73.75
68128;SHT30;54931;52.098;21.006;2023-07-02T05:29:22;19.78;73.36
68128;SHT30;54931;52.098;21.006;2023-07-02T05:31:49;19.85;73.21
68128;SHT30;54931;52.098;21.006;2023-07-02T05:34:17;19.95;73.69
68128;SHT30;54931;52.098;21.006;2023-07-02T05:36:44;20.06;73.60
68128;SHT30;54931;52.098;21.006;2023-07-02T05:39:12;20.16;72.71
68128;SHT30;54931;52.098;21.006;2023-07-02T05:41:39;20.22;72.06
68128;SHT30;54931;52.098;21.006;2023-07-02T05:44:07;20.27;70.51
68128;SHT30;54931;52.098;21.006;2023-07-02T05:46:34;20.32;70.53
68128;SHT30;54931;52.098;21.006;2023-07-02T05:49:02;20.41;70.99
68128;SHT30;54931;52.098;21.006;2023-07-02T05:51:29;20.50;70.18
68128;SHT30;54931;52.098;21.006;2023-07-02T05:53:57;20.55;69.23
68128;SHT30;54931;52.098;21.006;2023-07-02T05:56:25;20.59;69.47
68128;SHT30;54931;52.098;21.006;2023-07-02T05:58:52;20.66;69.25
68128;SHT30;54931;52.098;21.006;2023-07-02T06:01:20;20.72;68.73
68128;SHT30;54931;52.098;21.006;2023-07-02T06:03:49;20.81;68.95
68128;SHT30;54931;52.098;21.006;2023-07-02T06:06:17;20.86;68.68
68128;SHT30;54931;52.098;21.006;2023-07-02T06:08:45;20.88;68.59
68128;SHT30;54931;52.098;21.006;2023-07-02T06:11:12;20.93;68.42
68128;SHT30;54931;52.098;21.006;2023-07-02T06:13:42;20.99;68.42
68128;SHT30;54931;52.098;21.006;2023-07-02T06:16:09;21.05;67.96
68128;SHT30;54931;52.098;21.006;2023-07-02T06:18:37;21.10;67.44
68128;SHT30;54931;52.098;21.006;2023-07-02T06:21:05;21.18;67.24
68128;SHT30;54931;52.098;21.006;2023-07-02T06:23:44;21.24;66.01
68128;SHT30;54931;52.098;21.006;2023-07-02T06:26:12;21.28;66.16
68128;SHT30;54931;52.098;21.006;2023-07-02T06:28:40;21.35;65.64
68128;SHT30;54931;52.098;21.006;2023-07-02T06:31:07;21.44;65.05
68128;SHT30;54931;52.098;21.006;2023-07-02T06:33:37;21.62;65.34
68128;SHT30;54931;52.098;21.006;2023-07-02T06:36:07;21.71;63.05
68128;SHT30;54931;52.098;21.006;2023-07-02T06:38:35;21.71;62.67
68128;SHT30;54931;52.098;21.006;2023-07-02T06:41:03;21.69;62.73
68128;SHT30;54931;52.098;21.006;2023-07-02T06:43:31;21.71;62.92
68128;SHT30;54931;52.098;21.006;2023-07-02T06:45:58;21.72;62.19
68128;SHT30;54931;52.098;21.006;2023-07-02T06:48:26;21.74;61.95
68128;SHT30;54931;52.098;21.006;2023-07-02T06:50:53;21.73;61.56
68128;SHT30;54931;52.098;21.006;2023-07-02T06:53:23;21.69;61.79
68128;SHT30;54931;52.098;21.006;2023-07-02T06:55:51;21.72;62.00
68128;SHT30;54931;52.098;21.006;2023-07-02T06:58:18;21.78;62.04
68128;SHT30;54931;52.098;21.006;2023-07-02T07:00:47;21.84;62.28
68128;SHT30;54931;52.098;21.006;2023-07-02T07:03:15;21.87;61.37
68128;SHT30;54931;52.098;21.006;2023-07-02T07:05:44;21.85;60.74
68128;SHT30;54931;52.098;21.006;2023-07-02T07:08:11;21.88;61.38
68128;SHT30;54931;52.098;21.006;2023-07-02T07:10:39;21.95;60.99
68128;SHT30;54931;52.098;21.006;2023-07-02T07:13:07;21.94;60.14
68128;SHT30;54931;52.098;21.006;2023-07-02T07:15:35;21.86;60.22
68128;SHT30;54931;52.098;21.006;2023-07-02T07:18:03;21.82;60.88
68128;SHT30;54931;52.098;21.006;2023-07-02T07:20:31;21.85;61.10
68128;SHT30;54931;52.098;21.006;2023-07-02T07:22:58;21.83;60.93
68128;SHT30;54931;52.098;21.006;2023-07-02T07:25:26;21.86;61.55
68128;SHT30;54931;52.098;21.006;2023-07-02T07:27:54;21.92;61.54
68128;SHT30;54931;52.098;21.006;2023-07-02T07:30:22;22.04;62.11
68128;SHT30;54931;52.098;21.006;2023-07-02T07:32:50;22.18;61.14
68128;SHT30;54931;52.098;21.006;2023-07-02T07:35:20;22.24;60.61
68128;SHT30;54931;52.098;21.006;2023-07-02T07:37:49;22.35;60.87
68128;SHT30;54931;52.098;21.006;2023-07-02T07:40:16;22.51;60.07
68128;SHT30;54931;52.098;21.006;2023-07-02T07:42:45;22.56;59.85
68128;SHT30;54931;52.098;21.006;2023-07-02T07:45:12;22.52;59.54
68128;SHT30;54931;52.098;21.006;2023-07-02T07:47:40;22.46;60.19
68128;SHT30;54931;52.098;21.006;2023-07-02T07:50:07;22.48;60.64
68128;SHT30;54931;52.098;21.006;2023-07-02T07:52:39;22.55;60.77
68128;SHT30;54931;52.098;21.006;2023-07-02T07:55:09;22.61;60.75
68128;SHT30;54931;52.098;21.006;2023-07-02T07:57:37;22.51;59.67
68128;SHT30;54931;52.098;21.006;2023-07-02T08:00:05;22.37;60.37
68128;SHT30;54931;52.098;21.006;2023-07-02T08:02:40;22.29;61.01
68128;SHT30;54931;52.098;21.006;2023-07-02T08:05:08;22.19;60.62
68128;SHT30;54931;52.098;21.006;2023-07-02T08:07:37;22.06;60.90
68128;SHT30;54931;52.098;21.006;2023-07-02T08:10:10;22.00;61.65
68128;SHT30;54931;52.098;21.006;2023-07-02T08:12:38;22.01;61.82
68128;SHT30;54931;52.098;21.006;2023-07-02T08:15:06;22.11;62.17
68128;SHT30;54931;52.098;21.006;2023-07-02T08:17:35;22.25;61.75
68128;SHT30;54931;52.098;21.006;2023-07-02T08:20:03;22.28;61.26
68128;SHT30;54931;52.098;21.006;2023-07-02T08:22:32;22.32;61.78
68128;SHT30;54931;52.098;21.006;2023-07-02T08:24:59;22.41;61.78
68128;SHT30;54931;52.098;21.006;2023-07-02T08:27:27;22.48;61.81
68128;SHT30;54931;52.098;21.006;2023-07-02T08:29:55;22.61;61.76
68128;SHT30;54931;52.098;21.006;2023-07-02T08:32:23;22.78;61.63
68128;SHT30;54931;52.098;21.006;2023-07-02T08:34:51;22.91;61.25
68128;SHT30;54931;52.098;21.006;2023-07-02T08:37:19;22.93;61.34
68128;SHT30;54931;52.098;21.006;2023-07-02T08:39:48;22.85;60.53
68128;SHT30;54931;52.098;21.006;2023-07-02T08:42:17;22.71;60.82
68128;SHT30;54931;52.098;21.006;2023-07-02T08:44:45;22.55;61.10
68128;SHT30;54931;52.098;21.006;2023-07-02T08:47:14;22.45;61.75
68128;SHT30;54931;52.098;21.006;2023-07-02T08:49:42;22.46;62.29
68128;SHT30;54931;52.098;21.006;2023-07-02T08:52:10;22.43;61.52
68128;SHT30;54931;52.098;21.006;2023-07-02T08:54:37;22.32;61.68
68128;SHT30;54931;52.098;21.006;2023-07-02T08:57:05;22.22;61.89
68128;SHT30;54931;52.098;21.006;2023-07-02T08:59:33;22.20;62.25
68128;SHT30;54931;52.098;21.006;2023-07-02T09:02:03;22.29;62.27
68128;SHT30;54931;52.098;21.006;2023-07-02T09:04:32;22.56;62.34
68128;SHT30;54931;52.098;21.006;2023-07-02T09:07:09;22.77;61.03
68128;SHT30;54931;52.098;21.006;2023-07-02T09:09:45;22.83;61.08
68128;SHT30;54931;52.098;21.006;2023-07-02T09:15:00;22.54;61.38
68128;SHT30;54931;52.098;21.006;2023-07-02T09:17:34;22.32;61.67
68128;SHT30;54931;52.098;21.006;2023-07-02T09:20:04;22.09;62.33
68128;SHT30;54931;52.098;21.006;2023-07-02T09:22:36;21.89;62.92
68128;SHT30;54931;52.098;21.006;2023-07-02T09:25:06;21.69;63.76
68128;SHT30;54931;52.098;21.006;2023-07-02T09:27:36;21.51;64.31
68128;SHT30;54931;52.098;21.006;2023-07-02T09:30:14;21.49;64.85
68128;SHT30;54931;52.098;21.006;2023-07-02T09:32:43;21.50;64.73
68128;SHT30;54931;52.098;21.006;2023-07-02T09:35:12;21.60;64.98
68128;SHT30;54931;52.098;21.006;2023-07-02T09:37:42;21.69;64.65
68128;SHT30;54931;52.098;21.006;2023-07-02T09:40:14;21.77;64.74
68128;SHT30;54931;52.098;21.006;2023-07-02T09:42:45;21.91;64.68
68128;SHT30;54931;52.098;21.006;2023-07-02T09:45:22;22.02;64.65
68128;SHT30;54931;52.098;21.006;2023-07-02T09:47:50;22.09;63.87
68128;SHT30;54931;52.098;21.006;2023-07-02T09:50:22;22.15;63.61
68128;SHT30;54931;52.098;21.006;2023-07-02T09:52:51;22.24;63.56
68128;SHT30;54931;52.098;21.006;2023-07-02T09:55:21;22.28;63.50
68128;SHT30;54931;52.098;21.006;2023-07-02T09:57:49;22.26;63.42
68128;SHT30;54931;52.098;21.006;2023-07-02T10:00:17;22.20;63.48
68128;SHT30;54931;52.098;21.006;2023-07-02T10:02:47;22.16;63.52
68128;SHT30;54931;52.098;21.006;2023-07-02T10:08:14;22.44;64.06
68128;SHT30;54931;52.098;21.006;2023-07-02T10:10:48;23.05;64.24
68128;SHT30;54931;52.098;21.006;2023-07-02T10:13:26;23.65;62.86
68128;SHT30;54931;52.098;21.006;2023-07-02T10:16:01;24.00;60.20
68128;SHT30;54931;52.098;21.006;2023-07-02T10:18:33;24.12;58.94
68128;SHT30;54931;52.098;21.006;2023-07-02T10:21:12;24.14;58.65
68128;SHT30;54931;52.098;21.006;2023-07-02T10:23:42;24.12;58.11
68128;SHT30;54931;52.098;21.006;2023-07-02T10:26:14;24.09;57.41
68128;SHT30;54931;52.098;21.006;2023-07-02T10:28:57;24.02;58.07
68128;SHT30;54931;52.098;21.006;2023-07-02T10:31:26;24.04;57.58
68128;SHT30;54931;52.098;21.006;2023-07-02T10:33:54;24.01;56.97
68128;SHT30;54931;52.098;21.006;2023-07-02T10:36:23;24.06;57.77
68128;SHT30;54931;52.098;21.006;2023-07-02T10:38:52;24.28;58.14
68128;SHT30;54931;52.098;21.006;2023-07-02T10:41:24;24.67;58.40
68128;SHT30;54931;52.098;21.006;2023-07-02T10:44:09;25.10;57.63
68128;SHT30;54931;52.098;21.006;2023-07-02T10:46:46;25.61;56.14
68128;SHT30;54931;52.098;21.006;2023-07-02T10:49:17;26.10;53.84
68128;SHT30;54931;52.098;21.006;2023-07-02T10:51:56;26.33;52.82
68128;SHT30;54931;52.098;21.006;2023-07-02T10:54:44;26.48;51.37
68128;SHT30;54931;52.098;21.006;2023-07-02T10:57:17;26.46;50.87
68128;SHT30;54931;52.098;21.006;2023-07-02T10:59:51;26.45;51.22
68128;SHT30;54931;52.098;21.006;2023-07-02T11:02:19;26.50;51.74
68128;SHT30;54931;52.098;21.006;2023-07-02T11:04:50;26.55;51.70
68128;SHT30;54931;52.098;21.006;2023-07-02T11:07:22;26.49;51.14
68128;SHT30;54931;52.098;21.006;2023-07-02T11:09:51;26.28;49.92
68128;SHT30;54931;52.098;21.006;2023-07-02T11:12:26;26.17;51.52
68128;SHT30;54931;52.098;21.006;2023-07-02T11:15:12;26.22;51.18
68128;SHT30;54931;52.098;21.006;2023-07-02T11:17:42;26.25;50.67
68128;SHT30;54931;52.098;21.006;2023-07-02T11:20:11;26.24;51.67
68128;SHT30;54931;52.098;21.006;2023-07-02T11:22:43;26.27;51.57
68128;SHT30;54931;52.098;21.006;2023-07-02T11:25:15;26.32;51.56
68128;SHT30;54931;52.098;21.006;2023-07-02T11:27:47;26.50;51.83
68128;SHT30;54931;52.098;21.006;2023-07-02T11:30:15;26.69;50.79
68128;SHT30;54931;52.098;21.006;2023-07-02T11:32:53;26.85;49.99
68128;SHT30;54931;52.098;21.006;2023-07-02T11:35:22;26.88;49.15
68128;SHT30;54931;52.098;21.006;2023-07-02T11:38:03;26.72;49.39
68128;SHT30;54931;52.098;21.006;2023-07-02T11:40:31;26.48;49.53
68128;SHT30;54931;52.098;21.006;2023-07-02T11:43:00;26.13;50.40
68128;SHT30;54931;52.098;21.006;2023-07-02T11:45:27;25.65;51.75
68128;SHT30;54931;52.098;21.006;2023-07-02T11:47:56;25.20;52.93
68128;SHT30;54931;52.098;21.006;2023-07-02T11:50:24;24.80;53.98
68128;SHT30;54931;52.098;21.006;2023-07-02T11:52:53;24.61;54.70
68128;SHT30;54931;52.098;21.006;2023-07-02T11:55:21;24.43;55.03
68128;SHT30;54931;52.098;21.006;2023-07-02T11:57:49;24.34;55.62
68128;SHT30;54931;52.098;21.006;2023-07-02T12:00:17;24.48;55.58
68128;SHT30;54931;52.098;21.006;2023-07-02T12:02:46;24.64;55.08
68128;SHT30;54931;52.098;21.006;2023-07-02T12:05:14;24.71;54.55
68128;SHT30;54931;52.098;21.006;2023-07-02T12:07:42;24.80;54.76
68128;SHT30;54931;52.098;21.006;2023-07-02T12:10:10;25.13;54.96
68128;SHT30;54931;52.098;21.006;2023-07-02T12:12:38;25.49;52.85
68128;SHT30;54931;52.098;21.006;2023-07-02T12:15:06;25.58;53.09
68128;SHT30;54931;52.098;21.006;2023-07-02T12:17:35;25.83;52.77
68128;SHT30;54931;52.098;21.006;2023-07-02T12:20:03;25.92;51.98
68128;SHT30;54931;52.098;21.006;2023-07-02T12:22:31;25.89;53.14
68128;SHT30;54931;52.098;21.006;2023-07-02T12:24:59;25.86;52.09
68128;SHT30;54931;52.098;21.006;2023-07-02T12:27:27;25.74;52.13
68128;SHT30;54931;52.098;21.006;2023-07-02T12:29:55;25.56;52.54
68128;SHT30;54931;52.098;21.006;2023-07-02T12:32:23;25.50;52.64
68128;SHT30;54931;52.098;21.006;2023-07-02T12:34:52;25.42;51.75
68128;SHT30;54931;52.098;21.006;2023-07-02T12:37:20;25.32;51.70
68128;SHT30;54931;52.098;21.006;2023-07-02T12:39:48;25.22;51.35
68128;SHT30;54931;52.098;21.006;2023-07-02T12:42:16;25.24;50.34
68128;SHT30;54931;52.098;21.006;2023-07-02T12:44:44;25.34;49.48
68128;SHT30;54931;52.098;21.006;2023-07-02T12:47:12;25.40;48.25
68128;SHT30;54931;52.098;21.006;2023-07-02T12:49:41;25.39;48.07
68128;SHT30;54931;52.098;21.006;2023-07-02T12:52:09;25.32;47.84
68128;SHT30;54931;52.098;21.006;2023-07-02T12:54:37;25.23;48.23
68128;SHT30;54931;52.098;21.006;2023-07-02T12:57:06;25.18;48.48
68128;SHT30;54931;52.098;21.006;2023-07-02T12:59:34;25.21;48.82
68128;SHT30;54931;52.098;21.006;2023-07-02T13:02:03;25.27;49.07
68128;SHT30;54931;52.098;21.006;2023-07-02T13:04:33;25.43;48.56
68128;SHT30;54931;52.098;21.006;2023-07-02T13:07:01;25.51;46.90
68128;SHT30;54931;52.098;21.006;2023-07-02T13:09:30;25.59;45.73
68128;SHT30;54931;52.098;21.006;2023-07-02T13:11:59;25.63;43.20
68128;SHT30;54931;52.098;21.006;2023-07-02T13:14:28;25.79;41.94
68128;SHT30;54931;52.098;21.006;2023-07-02T13:16:58;25.97;40.54
68128;SHT30;54931;52.098;21.006;2023-07-02T13:19:33;26.10;42.14
68128;SHT30;54931;52.098;21.006;2023-07-02T13:22:01;26.08;40.48
68128;SHT30;54931;52.098;21.006;2023-07-02T13:24:33;26.00;40.55
68128;SHT30;54931;52.098;21.006;2023-07-02T13:27:09;26.00;41.47
68128;SHT30;54931;52.098;21.006;2023-07-02T13:29:42;26.09;41.18
68128;SHT30;54931;52.098;21.006;2023-07-02T13:32:10;26.10;40.90
68128;SHT30;54931;52.098;21.006;2023-07-02T13:34:38;26.00;41.33
68128;SHT30;54931;52.098;21.006;2023-07-02T13:37:06;25.77;40.63
68128;SHT30;54931;52.098;21.006;2023-07-02T13:39:37;25.54;40.61
68128;SHT30;54931;52.098;21.006;2023-07-02T13:42:05;25.31;40.61
68128;SHT30;54931;52.098;21.006;2023-07-02T13:44:33;25.15;40.59
68128;SHT30;54931;52.098;21.006;2023-07-02T13:47:02;25.07;41.52
68128;SHT30;54931;52.098;21.006;2023-07-02T13:49:30;24.97;40.69
68128;SHT30;54931;52.098;21.006;2023-07-02T13:52:00;24.86;40.56
68128;SHT30;54931;52.098;21.006;2023-07-02T13:54:38;24.81;42.02
68128;SHT30;54931;52.098;21.006;2023-07-02T13:57:06;24.84;42.17
68128;SHT30;54931;52.098;21.006;2023-07-02T13:59:34;24.81;42.38
68128;SHT30;54931;52.098;21.006;2023-07-02T14:02:02;24.76;42.90
68128;SHT30;54931;52.098;21.006;2023-07-02T14:04:30;24.70;42.78
68128;SHT30;54931;52.098;21.006;2023-07-02T14:06:59;24.59;43.42
68128;SHT30;54931;52.098;21.006;2023-07-02T14:09:27;24.47;43.28
68128;SHT30;54931;52.098;21.006;2023-07-02T14:11:56;24.41;44.11
68128;SHT30;54931;52.098;21.006;2023-07-02T14:14:25;24.39;43.87
68128;SHT30;54931;52.098;21.006;2023-07-02T14:16:53;24.39;44.33
68128;SHT30;54931;52.098;21.006;2023-07-02T14:19:21;24.41;44.03
68128;SHT30;54931;52.098;21.006;2023-07-02T14:21:49;24.44;44.13
68128;SHT30;54931;52.098;21.006;2023-07-02T14:24:17;24.47;44.09
68128;SHT30;54931;52.098;21.006;2023-07-02T14:26:46;24.51;44.71
68128;SHT30;54931;52.098;21.006;2023-07-02T14:29:14;24.52;44.07
68128;SHT30;54931;52.098;21.006;2023-07-02T14:31:42;24.51;42.51
68128;SHT30;54931;52.098;21.006;2023-07-02T14:34:10;24.49;41.19
68128;SHT30;54931;52.098;21.006;2023-07-02T14:36:38;24.46;41.42
68128;SHT30;54931;52.098;21.006;2023-07-02T14:39:07;24.48;41.69
68128;SHT30;54931;52.098;21.006;2023-07-02T14:41:36;24.55;42.11
68128;SHT30;54931;52.098;21.006;2023-07-02T14:44:04;24.65;41.25
68128;SHT30;54931;52.098;21.006;2023-07-02T14:46:32;24.68;41.53
68128;SHT30;54931;52.098;21.006;2023-07-02T14:49:00;24.60;41.53
68128;SHT30;54931;52.098;21.006;2023-07-02T14:51:28;24.55;42.15
68128;SHT30;54931;52.098;21.006;2023-07-02T14:53:55;24.46;41.85
68128;SHT30;54931;52.098;21.006;2023-07-02T14:56:24;24.39;41.60
68128;SHT30;54931;52.098;21.006;2023-07-02T14:58:52;24.35;41.44
68128;SHT30;54931;52.098;21.006;2023-07-02T15:01:20;24.33;41.33
68128;SHT30;54931;52.098;21.006;2023-07-02T15:03:48;24.34;41.51
68128;SHT30;54931;52.098;21.006;2023-07-02T15:06:17;24.38;41.49
68128;SHT30;54931;52.098;21.006;2023-07-02T15:08:45;24.44;42.83
68128;SHT30;54931;52.098;21.006;2023-07-02T15:11:14;24.47;41.93
68128;SHT30;54931;52.098;21.006;2023-07-02T15:13:43;24.40;41.59
68128;SHT30;54931;52.098;21.006;2023-07-02T15:16:11;24.32;42.78
68128;SHT30;54931;52.098;21.006;2023-07-02T15:18:40;24.24;42.49
68128;SHT30;54931;52.098;21.006;2023-07-02T15:21:08;24.16;42.63
68128;SHT30;54931;52.098;21.006;2023-07-02T15:23:36;24.07;42.74
68128;SHT30;54931;52.098;21.006;2023-07-02T15:26:05;23.98;42.94
68128;SHT30;54931;52.098;21.006;2023-07-02T15:28:33;23.89;43.06
68128;SHT30;54931;52.098;21.006;2023-07-02T15:31:04;23.81;43.35